createdAt,value
2023-04-10T00:00:12.578Z,16.10
2023-04-10T00:03:09.006Z,15.50
2023-04-10T00:05:49.247Z,19.20
2023-04-10T00:08:25.374Z,18.30
2023-04-10T00:11:04.407Z,18.60
2023-04-10T00:13:43.453Z,13.30
2023-04-10T00:16:20.468Z,14.70
2023-04-10T00:18:57.629Z,14.40
2023-04-10T00:21:32.828Z,13.90
2023-04-10T00:24:10.218Z,16.50
2023-04-10T00:26:46.216Z,15.60
2023-04-10T00:29:21.768Z,15.60
2023-04-10T00:32:01.366Z,15.50
2023-04-10T00:34:37.588Z,16.50
2023-04-10T00:37:15.948Z,14.60
2023-04-10T00:39:52.398Z,14.30
2023-04-10T00:42:28.171Z,15.60
2023-04-10T00:45:04.989Z,14.20
2023-04-10T00:47:42.202Z,16.50
2023-04-10T00:50:21.310Z,15.60
2023-04-10T00:53:06.045Z,15.70
2023-04-10T00:55:43.598Z,15.50
2023-04-10T00:58:21.763Z,17.60
2023-04-10T01:00:57.474Z,16.60
2023-04-10T01:03:34.376Z,16.10
2023-04-10T01:06:20.350Z,17.30
2023-04-10T01:09:07.119Z,18.40
2023-04-10T01:11:56.179Z,16.80
2023-04-10T01:14:41.402Z,16.10
2023-04-10T01:17:25.515Z,15.70
2023-04-10T01:20:12.752Z,18.00
2023-04-10T01:23:03.573Z,18.20
2023-04-10T01:25:51.699Z,15.50
2023-04-10T01:29:07.864Z,16.80
2023-04-10T01:31:51.738Z,17.40
2023-04-10T01:34:36.321Z,17.10
2023-04-10T01:37:18.286Z,16.50
2023-04-10T01:40:22.344Z,18.60
2023-04-10T01:43:00.434Z,17.40
2023-04-10T01:45:47.205Z,18.40
2023-04-10T01:48:22.544Z,18.20
2023-04-10T01:50:59.235Z,17.60
2023-04-10T01:53:37.843Z,16.60
2023-04-10T01:56:18.176Z,18.10
2023-04-10T01:58:55.676Z,17.90
2023-04-10T02:01:32.079Z,16.80
2023-04-10T02:04:10.781Z,17.20
2023-04-10T02:07:00.946Z,18.40
2023-04-10T02:09:47.899Z,19.20
2023-04-10T02:12:32.765Z,18.90
2023-04-10T02:15:11.151Z,18.80
2023-04-10T02:17:56.337Z,22.30
2023-04-10T02:20:34.992Z,20.40
2023-04-10T02:23:12.372Z,19.60
2023-04-10T02:25:52.786Z,22.10
2023-04-10T02:28:30.358Z,21.10
2023-04-10T02:31:09.482Z,24.60
2023-04-10T02:33:45.046Z,25.10
2023-04-10T02:36:20.054Z,22.10
2023-04-10T02:38:57.885Z,20.90
2023-04-10T02:41:38.543Z,22.00
2023-04-10T02:44:17.767Z,21.00
2023-04-10T02:46:53.757Z,20.40
2023-04-10T02:49:30.355Z,25.60
2023-04-10T02:52:07.099Z,21.00
2023-04-10T02:54:44.062Z,18.70
2023-04-10T02:57:31.223Z,19.20
2023-04-10T03:00:10.051Z,18.80
2023-04-10T03:03:28.232Z,18.90
2023-04-10T03:06:06.193Z,22.20
2023-04-10T03:08:46.632Z,20.10
2023-04-10T03:11:24.537Z,19.70
2023-04-10T03:14:01.498Z,21.60
2023-04-10T03:16:37.234Z,20.90
2023-04-10T03:19:15.293Z,20.60
2023-04-10T03:21:52.715Z,21.10
2023-04-10T03:24:30.513Z,20.10
2023-04-10T03:27:08.896Z,21.00
2023-04-10T03:29:45.048Z,20.70
2023-04-10T03:32:22.033Z,18.90
2023-04-10T03:35:01.297Z,19.30
2023-04-10T03:37:37.944Z,20.60
2023-04-10T03:40:15.237Z,19.60
2023-04-10T03:43:01.448Z,19.80
2023-04-10T03:45:39.756Z,18.90
2023-04-10T03:48:16.818Z,18.50
2023-04-10T03:50:57.107Z,19.60
2023-04-10T03:53:38.564Z,19.60
2023-04-10T03:56:23.953Z,19.20
2023-04-10T03:59:00.332Z,18.40
2023-04-10T04:01:42.503Z,18.10
2023-04-10T04:04:20.752Z,16.80
2023-04-10T04:07:21.605Z,20.80
2023-04-10T04:10:18.796Z,19.70
2023-04-10T04:13:18.648Z,20.10
2023-04-10T04:16:14.890Z,21.60
2023-04-10T04:19:05.836Z,24.20
2023-04-10T04:21:48.743Z,21.70
2023-04-10T04:24:39.891Z,22.00
2023-04-10T04:27:33.169Z,21.10
2023-04-10T04:30:16.474Z,20.90
2023-04-10T04:32:56.361Z,19.40
2023-04-10T04:35:58.447Z,23.80
2023-04-10T04:38:58.428Z,20.90
2023-04-10T04:41:39.170Z,19.10
2023-04-10T04:44:25.276Z,21.70
2023-04-10T04:47:22.636Z,21.00
2023-04-10T04:50:21.863Z,20.80
2023-04-10T04:53:23.895Z,22.10
2023-04-10T04:56:18.722Z,20.00
2023-04-10T04:59:22.101Z,19.60
2023-04-10T05:02:28.563Z,24.20
2023-04-10T05:05:24.444Z,21.30
2023-04-10T05:08:13.497Z,21.60
2023-04-10T05:11:11.419Z,21.30
2023-04-10T05:14:13.232Z,21.00
2023-04-10T05:17:11.306Z,21.10
2023-04-10T05:19:54.164Z,21.20
2023-04-10T05:22:49.316Z,20.50
2023-04-10T05:25:50.159Z,22.10
2023-04-10T05:28:31.045Z,22.00
2023-04-10T05:31:38.712Z,20.10
2023-04-10T05:34:22.981Z,20.60
2023-04-10T05:37:25.575Z,19.70
2023-04-10T05:40:29.570Z,22.10
2023-04-10T05:43:26.147Z,19.80
2023-04-10T05:46:12.116Z,19.20
2023-04-10T05:49:05.098Z,19.60
2023-04-10T05:52:05.404Z,19.50
2023-04-10T05:55:13.712Z,21.30
2023-04-10T05:57:52.281Z,19.60
2023-04-10T06:00:54.189Z,17.90
2023-04-10T06:03:56.360Z,22.60
2023-04-10T06:06:39.587Z,19.90
2023-04-10T06:09:13.745Z,18.20
2023-04-10T06:11:49.492Z,20.40
2023-04-10T06:14:28.941Z,18.80
2023-04-10T06:17:13.389Z,21.00
2023-04-10T06:19:52.075Z,19.00
2023-04-10T06:22:28.480Z,20.80
2023-04-10T06:25:05.617Z,20.60
2023-04-10T06:27:44.068Z,19.30
2023-04-10T06:30:22.243Z,21.90
2023-04-10T06:32:59.477Z,20.10
2023-04-10T06:35:37.497Z,19.70
2023-04-10T06:38:16.917Z,21.20
2023-04-10T06:40:51.350Z,22.50
2023-04-10T06:43:31.949Z,25.00
2023-04-10T06:46:09.160Z,23.60
2023-04-10T06:48:49.824Z,21.40
2023-04-10T06:51:29.533Z,19.80
2023-04-10T06:54:03.621Z,20.90
2023-04-10T06:56:47.730Z,19.60
2023-04-10T06:59:24.182Z,20.50
2023-04-10T07:02:01.047Z,19.40
2023-04-10T07:04:38.656Z,19.90
2023-04-10T07:07:20.265Z,21.90
2023-04-10T07:09:55.413Z,19.00
2023-04-10T07:12:33.548Z,16.60
2023-04-10T07:15:13.768Z,20.30
2023-04-10T07:17:51.012Z,17.30
2023-04-10T07:20:29.597Z,20.60
2023-04-10T07:23:06.881Z,15.30
2023-04-10T07:25:40.709Z,15.40
2023-04-10T07:28:15.920Z,17.40
2023-04-10T07:30:52.016Z,16.40
2023-04-10T07:33:30.317Z,18.70
2023-04-10T07:36:07.823Z,17.80
2023-04-10T07:38:44.334Z,17.80
2023-04-10T07:41:19.859Z,18.10
2023-04-10T07:43:56.109Z,16.10
2023-04-10T07:46:32.361Z,15.30
2023-04-10T07:49:10.583Z,14.20
2023-04-10T07:51:46.988Z,15.30
2023-04-10T07:54:23.903Z,18.10
2023-04-10T07:57:04.162Z,23.10
2023-04-10T07:59:39.669Z,41.00
2023-04-10T08:02:16.178Z,25.50
2023-04-10T08:04:53.305Z,32.00
2023-04-10T08:07:30.304Z,40.00
2023-04-10T08:10:05.761Z,21.40
2023-04-10T08:12:42.170Z,17.00
2023-04-10T08:15:18.871Z,14.00
2023-04-10T08:17:56.611Z,16.80
2023-04-10T08:20:38.130Z,12.80
2023-04-10T08:23:20.334Z,15.40
2023-04-10T08:26:00.600Z,14.40
2023-04-10T08:28:38.286Z,15.60
2023-04-10T08:31:15.603Z,13.60
2023-04-10T08:33:54.661Z,14.70
2023-04-10T08:36:29.580Z,13.60
2023-04-10T08:39:06.342Z,12.90
2023-04-10T08:41:43.996Z,15.10
2023-04-10T08:44:21.716Z,21.70
2023-04-10T08:47:01.613Z,13.60
2023-04-10T08:49:45.133Z,11.90
2023-04-10T08:52:24.801Z,12.30
2023-04-10T08:55:02.779Z,13.90
2023-04-10T08:57:45.204Z,12.50
2023-04-10T09:00:26.458Z,10.90
2023-04-10T09:03:05.966Z,10.80
2023-04-10T09:05:42.039Z,12.30
2023-04-10T09:08:18.591Z,12.90
2023-04-10T09:10:57.429Z,12.30
2023-04-10T09:13:49.253Z,11.40
2023-04-10T09:16:35.261Z,12.20
2023-04-10T09:19:11.654Z,10.90
2023-04-10T09:21:55.818Z,11.80
2023-04-10T09:24:36.068Z,9.70
2023-04-10T09:27:11.690Z,12.00
2023-04-10T09:29:52.333Z,11.70
2023-04-10T09:32:41.990Z,10.50
2023-04-10T09:35:19.624Z,9.00
2023-04-10T09:37:55.436Z,9.40
2023-04-10T09:40:41.701Z,9.30
2023-04-10T09:43:25.558Z,9.90
2023-04-10T09:46:05.790Z,9.00
2023-04-10T09:48:41.992Z,9.90
2023-04-10T09:51:41.351Z,12.50
2023-04-10T09:54:18.109Z,9.50
2023-04-10T09:57:02.317Z,12.80
2023-04-10T09:59:47.576Z,11.70
2023-04-10T10:02:26.677Z,12.20
2023-04-10T10:05:05.601Z,12.40
2023-04-10T10:07:47.440Z,12.00
2023-04-10T10:10:27.957Z,12.40
2023-04-10T10:13:06.889Z,13.80
2023-04-10T10:15:49.392Z,10.90
2023-04-10T10:18:39.660Z,11.40
2023-04-10T10:21:22.291Z,12.30
2023-04-10T10:24:00.608Z,9.50
2023-04-10T10:26:37.476Z,10.70
2023-04-10T10:29:20.710Z,10.10
2023-04-10T10:31:59.455Z,9.30
2023-04-10T10:34:46.920Z,12.40
2023-04-10T10:37:25.136Z,8.70
2023-04-10T10:40:08.762Z,9.50
2023-04-10T10:42:53.645Z,10.60
2023-04-10T10:45:35.701Z,10.50
2023-04-10T10:48:14.247Z,8.60
2023-04-10T10:51:01.057Z,11.10
2023-04-10T10:53:46.688Z,9.70
2023-04-10T10:56:39.458Z,8.70
2023-04-10T10:59:22.923Z,8.20
2023-04-10T11:02:19.583Z,10.90
2023-04-10T11:04:58.025Z,9.80
2023-04-10T11:08:12.364Z,10.50
2023-04-10T11:11:05.786Z,9.60
2023-04-10T11:14:04.749Z,8.80
2023-04-10T11:16:52.177Z,8.20
2023-04-10T11:19:28.465Z,9.90
2023-04-10T11:22:12.023Z,9.60
2023-04-10T11:25:10.578Z,8.20
2023-04-10T11:27:51.837Z,9.20
2023-04-10T11:30:41.883Z,10.40
2023-04-10T11:33:23.214Z,8.90
2023-04-10T11:36:00.793Z,8.80
2023-04-10T11:38:36.482Z,10.20
2023-04-10T11:41:14.324Z,9.50
2023-04-10T11:43:54.675Z,9.30
2023-04-10T11:46:39.602Z,10.90
2023-04-10T11:49:22.628Z,7.90
2023-04-10T11:51:57.872Z,9.50
2023-04-10T11:54:38.714Z,10.50
2023-04-10T11:57:19.609Z,9.20
2023-04-10T11:59:57.385Z,9.80
2023-04-10T12:02:33.866Z,8.90
2023-04-10T12:05:20.932Z,9.30
2023-04-10T12:08:03.015Z,8.30
2023-04-10T12:10:56.084Z,11.70
2023-04-10T12:13:34.108Z,10.60
2023-04-10T12:16:13.208Z,9.00
2023-04-10T12:18:49.515Z,7.90
2023-04-10T12:21:28.513Z,8.60
2023-04-10T12:24:05.071Z,8.40
2023-04-10T12:26:40.150Z,9.70
2023-04-10T12:29:18.063Z,9.00
2023-04-10T12:31:54.135Z,7.90
2023-04-10T12:34:33.210Z,8.80
2023-04-10T12:37:12.682Z,9.40
2023-04-10T12:39:48.386Z,8.10
2023-04-10T12:42:26.052Z,9.20
2023-04-10T12:45:04.448Z,10.20
2023-04-10T12:47:49.299Z,7.80
2023-04-10T12:50:28.865Z,8.70
2023-04-10T12:53:14.173Z,9.00
2023-04-10T12:56:09.336Z,9.70
2023-04-10T12:58:45.477Z,8.80
2023-04-10T13:01:23.095Z,7.80
2023-04-10T13:03:58.555Z,9.80
2023-04-10T13:06:38.774Z,7.50
2023-04-10T13:09:19.252Z,9.80
2023-04-10T13:11:58.197Z,8.90
2023-04-10T13:14:40.429Z,8.50
2023-04-10T13:17:16.548Z,7.30
2023-04-10T13:19:52.554Z,9.00
2023-04-10T13:22:28.514Z,7.20
2023-04-10T13:25:08.463Z,7.00
2023-04-10T13:27:44.022Z,7.80
2023-04-10T13:30:24.572Z,7.60
2023-04-10T13:33:02.691Z,8.70
2023-04-10T13:35:37.884Z,8.50
2023-04-10T13:38:13.366Z,7.00
2023-04-10T13:40:50.600Z,8.80
2023-04-10T13:43:26.297Z,8.00
2023-04-10T13:46:06.486Z,9.10
2023-04-10T13:48:43.976Z,8.80
2023-04-10T13:51:21.786Z,8.10
2023-04-10T13:53:59.282Z,8.20
2023-04-10T13:56:36.595Z,12.20
2023-04-10T13:59:12.804Z,7.90
2023-04-10T14:01:48.722Z,12.00
2023-04-10T14:04:35.836Z,6.90
2023-04-10T14:07:12.498Z,7.80
2023-04-10T14:09:48.735Z,8.00
2023-04-10T14:12:24.544Z,7.40
2023-04-10T14:15:02.009Z,6.50
2023-04-10T14:17:45.981Z,7.90
2023-04-10T14:20:21.572Z,7.20
2023-04-10T14:22:59.224Z,8.10
2023-04-10T14:25:36.013Z,8.30
2023-04-10T14:28:17.961Z,8.40
2023-04-10T14:30:54.527Z,7.00
2023-04-10T14:33:29.726Z,6.90
2023-04-10T14:36:11.849Z,7.90
2023-04-10T14:38:52.916Z,6.30
2023-04-10T14:41:29.584Z,5.80
2023-04-10T14:44:08.845Z,8.00
2023-04-10T14:46:47.909Z,5.60
2023-04-10T14:49:32.214Z,6.20
2023-04-10T14:52:09.059Z,5.80
2023-04-10T14:54:53.219Z,6.30
2023-04-10T14:57:32.603Z,5.80
2023-04-10T15:00:17.363Z,7.60
2023-04-10T15:02:54.714Z,6.90
2023-04-10T15:05:33.797Z,6.50
2023-04-10T15:08:10.230Z,8.00
2023-04-10T15:10:48.222Z,8.40
2023-04-10T15:13:25.169Z,7.20
2023-04-10T15:16:01.844Z,7.90
2023-04-10T15:18:39.847Z,14.40
2023-04-10T15:21:24.695Z,8.00
2023-04-10T15:24:02.577Z,7.90
2023-04-10T15:26:39.796Z,9.00
2023-04-10T15:29:19.303Z,8.20
2023-04-10T15:31:55.603Z,6.40
2023-04-10T15:34:30.627Z,7.20
2023-04-10T15:37:14.991Z,7.80
2023-04-10T15:39:51.153Z,8.00
2023-04-10T15:42:28.334Z,7.50
2023-04-10T15:45:21.948Z,5.70
2023-04-10T15:48:06.058Z,8.40
2023-04-10T15:50:47.464Z,7.50
2023-04-10T15:53:24.577Z,6.90
2023-04-10T15:56:03.225Z,7.90
2023-04-10T15:58:41.661Z,6.50
2023-04-10T16:01:22.327Z,7.10
2023-04-10T16:03:57.937Z,6.70
2023-04-10T16:06:36.076Z,6.20
2023-04-10T16:09:25.427Z,6.50
2023-04-10T16:12:06.211Z,7.90
2023-04-10T16:14:44.518Z,6.50
2023-04-10T16:17:23.004Z,7.20
2023-04-10T16:20:00.622Z,8.30
2023-04-10T16:22:39.639Z,6.90
2023-04-10T16:25:17.607Z,6.20
2023-04-10T16:27:57.548Z,10.20
2023-04-10T16:30:36.302Z,7.40
2023-04-10T16:33:10.711Z,7.80
2023-04-10T16:35:47.862Z,8.20
2023-04-10T16:38:27.986Z,8.20
2023-04-10T16:41:10.461Z,7.80
2023-04-10T16:43:44.828Z,7.10
2023-04-10T16:46:22.238Z,7.10
2023-04-10T16:49:00.145Z,6.60
2023-04-10T16:51:37.057Z,6.30
2023-04-10T16:54:13.554Z,8.10
2023-04-10T16:56:57.018Z,10.80
2023-04-10T16:59:42.545Z,10.70
2023-04-10T17:02:25.308Z,8.20
2023-04-10T17:05:02.235Z,9.10
2023-04-10T17:07:38.723Z,6.10
2023-04-10T17:10:18.624Z,7.10
2023-04-10T17:13:00.928Z,9.10
2023-04-10T17:15:35.553Z,8.50
2023-04-10T17:18:20.852Z,6.60
2023-04-10T17:20:58.335Z,6.90
2023-04-10T17:23:36.064Z,6.30
2023-04-10T17:26:17.734Z,6.80
2023-04-10T17:28:54.511Z,7.40
2023-04-10T17:31:33.813Z,8.70
2023-04-10T17:34:13.689Z,8.50
2023-04-10T17:36:50.130Z,10.80
2023-04-10T17:39:25.263Z,8.80
2023-04-10T17:42:02.142Z,8.90
2023-04-10T17:44:45.167Z,10.90
2023-04-10T17:47:20.223Z,8.70
2023-04-10T17:49:57.128Z,9.80
2023-04-10T17:52:37.521Z,11.50
2023-04-10T17:55:21.321Z,14.60
2023-04-10T17:58:06.100Z,10.60
2023-04-10T18:00:43.590Z,19.40
2023-04-10T18:03:22.189Z,15.60
2023-04-10T18:06:03.896Z,12.80
2023-04-10T18:08:39.789Z,12.80
2023-04-10T18:11:16.421Z,11.30
2023-04-10T18:13:53.297Z,14.00
2023-04-10T18:16:31.258Z,10.80
2023-04-10T18:19:08.104Z,13.70
2023-04-10T18:21:45.167Z,11.40
2023-04-10T18:24:20.269Z,11.70
2023-04-10T18:26:55.816Z,15.00
2023-04-10T18:29:33.399Z,21.90
2023-04-10T18:32:10.750Z,19.90
2023-04-10T18:34:46.429Z,18.00
2023-04-10T18:37:23.244Z,14.50
2023-04-10T18:40:21.006Z,17.30
2023-04-10T18:42:58.957Z,17.20
2023-04-10T18:45:35.330Z,18.80
2023-04-10T18:48:11.193Z,15.70
2023-04-10T18:50:48.337Z,18.90
2023-04-10T18:53:25.617Z,17.20
2023-04-10T18:56:03.824Z,15.20
2023-04-10T18:58:43.098Z,17.40
2023-04-10T19:01:19.247Z,17.00
2023-04-10T19:04:01.688Z,20.00
2023-04-10T19:06:40.383Z,22.80
2023-04-10T19:09:15.800Z,28.90
2023-04-10T19:11:56.947Z,20.10
2023-04-10T19:14:32.825Z,17.60
2023-04-10T19:17:09.920Z,19.60
2023-04-10T19:19:45.250Z,27.20
2023-04-10T19:22:39.815Z,41.30
2023-04-10T19:25:14.454Z,38.30
2023-04-10T19:27:53.033Z,43.70
2023-04-10T19:30:30.929Z,43.50
2023-04-10T19:33:07.777Z,41.00
2023-04-10T19:35:54.803Z,42.00
2023-04-10T19:38:32.642Z,39.10
2023-04-10T19:41:19.889Z,41.70
2023-04-10T19:43:59.363Z,37.50
2023-04-10T19:46:35.593Z,41.90
2023-04-10T19:49:12.275Z,36.60
2023-04-10T19:51:48.253Z,36.50
2023-04-10T19:54:24.847Z,38.20
2023-04-10T19:57:00.614Z,33.50
2023-04-10T19:59:38.738Z,37.70
2023-04-10T20:02:16.998Z,35.20
2023-04-10T20:04:55.104Z,37.70
2023-04-10T20:07:36.766Z,42.00
2023-04-10T20:10:12.480Z,35.10
2023-04-10T20:12:50.757Z,38.70
2023-04-10T20:15:47.387Z,42.30
2023-04-10T20:18:26.378Z,50.90
2023-04-10T20:21:04.721Z,48.90
2023-04-10T20:23:39.454Z,55.10
2023-04-10T20:26:17.444Z,46.70
2023-04-10T20:28:56.304Z,48.20
2023-04-10T20:31:34.090Z,47.40
2023-04-10T20:34:11.622Z,48.30
2023-04-10T20:36:48.572Z,44.40
2023-04-10T20:39:23.998Z,42.60
2023-04-10T20:42:04.162Z,41.10
2023-04-10T20:44:41.623Z,41.00
2023-04-10T20:47:19.974Z,39.20
2023-04-10T20:49:54.121Z,36.90
2023-04-10T20:52:29.458Z,36.50
2023-04-10T20:55:04.073Z,39.30
2023-04-10T20:57:42.595Z,38.80
2023-04-10T21:00:21.327Z,42.20
2023-04-10T21:02:58.288Z,52.80
2023-04-10T21:05:34.985Z,50.70
2023-04-10T21:08:15.320Z,52.50
2023-04-10T21:10:52.062Z,43.80
2023-04-10T21:13:27.554Z,39.50
2023-04-10T21:16:05.478Z,32.40
2023-04-10T21:18:42.522Z,32.30
2023-04-10T21:21:20.900Z,29.00
2023-04-10T21:23:58.469Z,29.20
2023-04-10T21:26:46.251Z,30.00
2023-04-10T21:29:26.171Z,28.60
2023-04-10T21:32:02.906Z,27.70
2023-04-10T21:34:39.048Z,27.40
2023-04-10T21:37:15.437Z,25.90
2023-04-10T21:39:50.595Z,28.10
2023-04-10T21:42:26.312Z,26.50
2023-04-10T21:45:01.380Z,26.20
2023-04-10T21:47:39.484Z,27.10
2023-04-10T21:50:16.973Z,29.60
2023-04-10T21:52:53.327Z,27.50
2023-04-10T21:55:45.561Z,29.90
2023-04-10T21:58:22.372Z,32.90
2023-04-10T22:00:58.969Z,29.90
2023-04-10T22:03:36.672Z,32.20
2023-04-10T22:06:20.471Z,31.60
2023-04-10T22:08:59.010Z,30.70
2023-04-10T22:11:34.977Z,30.00
2023-04-10T22:14:17.176Z,31.10
2023-04-10T22:16:58.495Z,32.50
2023-04-10T22:19:33.846Z,31.10
2023-04-10T22:22:10.405Z,31.70
2023-04-10T22:24:53.432Z,32.10
2023-04-10T22:27:31.767Z,29.50
2023-04-10T22:30:11.889Z,30.90
2023-04-10T22:32:50.533Z,29.60
2023-04-10T22:35:29.562Z,31.20
2023-04-10T22:38:07.706Z,30.30
2023-04-10T22:40:47.693Z,28.40
2023-04-10T22:43:25.409Z,32.60
2023-04-10T22:46:01.349Z,33.20
2023-04-10T22:48:39.555Z,31.00
2023-04-10T22:51:16.267Z,32.80
2023-04-10T22:53:53.384Z,32.90
2023-04-10T22:56:29.519Z,33.70
2023-04-10T22:59:07.019Z,33.20
2023-04-10T23:01:42.311Z,33.20
2023-04-10T23:04:23.657Z,32.90
2023-04-10T23:07:01.507Z,34.10
2023-04-10T23:09:47.326Z,31.50
2023-04-10T23:12:23.335Z,31.60
2023-04-10T23:14:57.739Z,30.30
2023-04-10T23:17:35.996Z,30.70
2023-04-10T23:20:17.407Z,32.10
2023-04-10T23:22:54.176Z,33.40
2023-04-10T23:25:38.452Z,33.50
2023-04-10T23:28:17.434Z,31.60
2023-04-10T23:30:55.431Z,30.70
2023-04-10T23:33:32.328Z,31.10
2023-04-10T23:36:10.372Z,32.90
2023-04-10T23:38:48.394Z,30.20
2023-04-10T23:41:28.135Z,30.00
2023-04-10T23:44:06.231Z,30.00
2023-04-10T23:46:42.409Z,29.50
2023-04-10T23:49:18.254Z,29.80
2023-04-10T23:51:58.508Z,29.40
2023-04-10T23:54:33.834Z,28.10
2023-04-10T23:57:11.547Z,29.10
2023-04-10T23:59:51.807Z,27.80
